Time,TemperatureF,DewpointF,PressureIn,WindDirection,WindDirectionDegrees,WindSpeedMPH,WindSpeedGustMPH,Humidity,HourlyPrecipIn,Conditions,Clouds,dailyrainin,SoftwareType,DateUTC
2013-02-22 00:00:00,41.9,37.5,30.16,ESE,113,0.2,0.7,84,0.00,,,0.00,WUHU216HW,2013-02-22 08:00:00,
2013-02-22 00:05:00,41.9,37.5,30.17,ESE,113,0.9,0.9,84,0.00,,,0.00,WUHU216HW,2013-02-22 08:05:00,
2013-02-22 00:10:00,42.1,37.9,30.17,ESE,113,0.7,0.9,85,0.00,,,0.00,WUHU216HW,2013-02-22 08:10:00,
2013-02-22 00:15:00,42.5,38.0,30.16,ESE,113,0.7,1.1,84,0.00,,,0.00,WUHU216HW,2013-02-22 08:15:00,
2013-02-22 00:20:00,42.3,37.4,30.16,ESE,113,1.1,1.1,83,0.00,,,0.00,WUHU216HW,2013-02-22 08:20:00,
2013-02-22 00:25:00,42.1,37.3,30.17,ESE,113,0.4,1.1,83,0.00,,,0.00,WUHU216HW,2013-02-22 08:25:00,
2013-02-22 00:30:00,41.9,37.1,30.17,ESE,113,0.4,1.1,83,0.00,,,0.00,WUHU216HW,2013-02-22 08:30:00,
2013-02-22 00:35:00,41.8,36.9,30.17,ESE,113,0.2,1.1,83,0.00,,,0.00,WUHU216HW,2013-02-22 08:35:00,
2013-02-22 00:40:00,41.4,36.3,30.17,ESE,113,0.0,0.9,82,0.00,,,0.00,WUHU216HW,2013-02-22 08:40:00,
2013-02-22 00:45:00,41.0,36.2,30.17,ESE,113,0.0,0.7,83,0.00,,,0.00,WUHU216HW,2013-02-22 08:45:00,
2013-02-22 00:50:00,40.9,36.0,30.17,ESE,113,0.2,0.7,83,0.00,,,0.00,WUHU216HW,2013-02-22 08:50:00,
2013-02-22 00:55:00,40.7,35.8,30.17,SE,135,0.0,0.2,83,0.00,,,0.00,WUHU216HW,2013-02-22 08:55:00,
2013-02-22 01:00:00,40.7,36.2,30.17,SE,135,0.0,0.4,84,0.00,,,0.00,WUHU216HW,2013-02-22 09:00:00,
2013-02-22 01:05:00,40.7,36.2,30.17,SE,135,0.0,0.4,84,0.00,,,0.00,WUHU216HW,2013-02-22 09:05:00,
2013-02-22 01:10:00,40.5,36.0,30.17,ESE,113,0.4,0.7,84,0.00,,,0.00,WUHU216HW,2013-02-22 09:10:00,
2013-02-22 01:15:00,40.5,36.0,30.17,ESE,113,0.4,0.7,84,0.00,,,0.00,WUHU216HW,2013-02-22 09:15:00,
2013-02-22 01:20:00,40.3,35.8,30.17,ESE,113,0.4,0.7,84,0.00,,,0.00,WUHU216HW,2013-02-22 09:20:00,
2013-02-22 01:25:00,40.5,36.6,30.17,ESE,113,0.2,0.7,86,0.00,,,0.00,WUHU216HW,2013-02-22 09:25:00,
2013-02-22 01:30:00,40.1,36.3,30.17,SE,135,0.0,0.7,86,0.00,,,0.00,WUHU216HW,2013-02-22 09:30:00,
2013-02-22 01:35:00,40.0,36.1,30.17,ESE,113,0.0,0.2,86,0.00,,,0.00,WUHU216HW,2013-02-22 09:35:00,
2013-02-22 01:40:00,40.0,36.4,30.17,ESE,113,0.2,0.2,87,0.00,,,0.00,WUHU216HW,2013-02-22 09:40:00,
2013-02-22 01:45:00,40.0,36.4,30.17,ESE,113,0.4,0.7,87,0.00,,,0.00,WUHU216HW,2013-02-22 09:45:00,
2013-02-22 01:50:00,39.8,36.2,30.17,ESE,113,0.0,0.7,87,0.00,,,0.00,WUHU216HW,2013-02-22 09:50:00,
2013-02-22 01:55:00,39.6,36.0,30.17,ESE,113,0.0,0.4,87,0.00,,,0.00,WUHU216HW,2013-02-22 09:55:00,
2013-02-22 02:00:00,39.4,35.8,30.16,ESE,113,0.7,0.9,87,0.00,,,0.00,WUHU216HW,2013-02-22 10:00:00,
2013-02-22 02:05:00,39.6,36.4,30.16,ESE,113,0.7,1.1,88,0.00,,,0.00,WUHU216HW,2013-02-22 10:05:00,
2013-02-22 02:10:00,39.6,36.4,30.17,ESE,113,0.2,1.1,88,0.00,,,0.00,WUHU216HW,2013-02-22 10:10:00,
2013-02-22 02:15:00,39.6,36.4,30.17,ESE,113,0.0,1.1,88,0.00,,,0.00,WUHU216HW,2013-02-22 10:15:00,
2013-02-22 02:20:00,39.6,36.4,30.17,ESE,113,0.4,0.4,88,0.00,,,0.00,WUHU216HW,2013-02-22 10:20:00,
2013-02-22 02:25:00,39.8,36.5,30.17,ESE,113,0.0,0.7,88,0.00,,,0.00,WUHU216HW,2013-02-22 10:25:00,
2013-02-22 02:30:00,39.4,35.8,30.17,ESE,113,0.0,0.7,87,0.00,,,0.00,WUHU216HW,2013-02-22 10:30:00,
2013-02-22 02:35:00,39.1,35.5,30.16,ESE,113,0.0,0.2,87,0.00,,,0.00,WUHU216HW,2013-02-22 10:35:00,
2013-02-22 02:40:00,39.1,35.5,30.16,ESE,113,0.0,0.2,87,0.00,,,0.00,WUHU216HW,2013-02-22 10:40:00,
2013-02-22 02:45:00,38.9,35.3,30.16,ESE,113,0.0,0.0,87,0.00,,,0.00,WUHU216HW,2013-02-22 10:45:00,
2013-02-22 02:50:00,38.5,34.9,30.16,ESE,113,0.0,0.0,87,0.00,,,0.00,WUHU216HW,2013-02-22 10:50:00,
2013-02-22 02:55:00,38.5,34.9,30.16,ESE,113,0.2,0.7,87,0.00,,,0.00,WUHU216HW,2013-02-22 10:55:00,
2013-02-22 03:00:00,38.3,34.7,30.16,ESE,113,0.4,0.7,87,0.00,,,0.00,WUHU216HW,2013-02-22 11:00:00,
2013-02-22 03:05:00,38.3,34.7,30.16,ESE,113,0.0,0.7,87,0.00,,,0.00,WUHU216HW,2013-02-22 11:05:00,
2013-02-22 03:10:00,38.0,34.4,30.16,ESE,113,0.2,0.7,87,0.00,,,0.00,WUHU216HW,2013-02-22 11:10:00,
2013-02-22 03:15:00,38.2,34.6,30.15,SE,135,0.4,0.7,87,0.00,,,0.00,WUHU216HW,2013-02-22 11:15:00,
2013-02-22 03:20:00,38.3,35.1,30.15,SE,135,0.0,0.7,88,0.00,,,0.00,WUHU216HW,2013-02-22 11:20:00,
2013-02-22 03:25:00,38.5,35.3,30.15,ESE,113,0.4,0.7,88,0.00,,,0.00,WUHU216HW,2013-02-22 11:25:00,
2013-02-22 03:30:00,38.5,35.6,30.15,ESE,113,0.0,0.7,89,0.00,,,0.00,WUHU216HW,2013-02-22 11:30:00,
2013-02-22 03:35:00,38.3,35.4,30.16,ESE,113,0.0,0.4,89,0.00,,,0.00,WUHU216HW,2013-02-22 11:35:00,
2013-02-22 03:40:00,38.5,35.6,30.16,ESE,113,0.0,0.0,89,0.00,,,0.00,WUHU216HW,2013-02-22 11:40:00,
2013-02-22 03:45:00,38.3,35.4,30.16,ESE,113,0.0,0.0,89,0.00,,,0.00,WUHU216HW,2013-02-22 11:45:00,
2013-02-22 03:50:00,38.2,35.2,30.16,ESE,113,0.0,0.0,89,0.00,,,0.00,WUHU216HW,2013-02-22 11:50:00,
2013-02-22 03:55:00,37.8,34.8,30.16,SE,135,0.0,0.0,89,0.00,,,0.00,WUHU216HW,2013-02-22 11:55:00,
2013-02-22 04:00:00,37.8,34.8,30.16,SE,135,0.0,0.0,89,0.00,,,0.00,WUHU216HW,2013-02-22 12:00:00,
2013-02-22 04:05:00,37.8,34.8,30.16,ESE,113,0.0,0.0,89,0.00,,,0.00,WUHU216HW,2013-02-22 12:05:00,
2013-02-22 04:10:00,38.2,35.5,30.16,ESE,113,0.0,0.0,90,0.00,,,0.00,WUHU216HW,2013-02-22 12:10:00,
2013-02-22 04:15:00,38.2,35.5,30.16,ESE,113,0.0,0.0,90,0.00,,,0.00,WUHU216HW,2013-02-22 12:15:00,
2013-02-22 04:20:00,37.8,35.1,30.16,ESE,113,0.0,0.0,90,0.00,,,0.00,WUHU216HW,2013-02-22 12:20:00,
2013-02-22 04:25:00,37.4,34.5,30.16,ESE,113,0.0,0.0,89,0.00,,,0.00,WUHU216HW,2013-02-22 12:25:00,
2013-02-22 04:30:00,37.1,33.9,30.16,ESE,113,0.0,0.0,88,0.00,,,0.00,WUHU216HW,2013-02-22 12:30:00,
2013-02-22 04:35:00,37.1,33.9,30.16,ESE,113,0.0,0.0,88,0.00,,,0.00,WUHU216HW,2013-02-22 12:35:00,
2013-02-22 04:40:00,36.7,33.5,30.16,ESE,113,0.0,0.0,88,0.00,,,0.00,WUHU216HW,2013-02-22 12:40:00,
2013-02-22 04:45:00,36.4,33.1,30.16,ESE,113,0.0,0.0,88,0.00,,,0.00,WUHU216HW,2013-02-22 12:45:00,
2013-02-22 04:50:00,37.1,34.1,30.16,ESE,113,0.0,0.0,89,0.00,,,0.00,WUHU216HW,2013-02-22 12:50:00,
2013-02-22 04:55:00,37.8,35.1,30.17,East,90,0.0,0.0,90,0.00,,,0.00,WUHU216HW,2013-02-22 12:55:00,
2013-02-22 05:00:00,38.0,35.3,30.17,East,90,0.0,0.4,90,0.00,,,0.00,WUHU216HW,2013-02-22 13:00:00,
2013-02-22 05:05:00,38.0,35.0,30.17,East,90,0.0,0.4,89,0.00,,,0.00,WUHU216HW,2013-02-22 13:05:00,
2013-02-22 05:10:00,38.0,34.8,30.18,NE,45,0.0,0.4,88,0.00,,,0.00,WUHU216HW,2013-02-22 13:10:00,
2013-02-22 05:15:00,38.0,34.8,30.18,NNE,23,0.0,0.4,88,0.00,,,0.00,WUHU216HW,2013-02-22 13:15:00,
2013-02-22 05:20:00,38.0,34.4,30.18,NNE,23,0.0,0.4,87,0.00,,,0.00,WUHU216HW,2013-02-22 13:20:00,
2013-02-22 05:25:00,37.8,34.2,30.18,NNE,23,0.0,0.4,87,0.00,,,0.00,WUHU216HW,2013-02-22 13:25:00,
2013-02-22 05:30:00,37.6,34.0,30.18,NE,45,0.4,0.4,87,0.00,,,0.00,WUHU216HW,2013-02-22 13:30:00,
2013-02-22 05:35:00,37.3,33.7,30.18,NE,45,0.4,1.1,87,0.00,,,0.00,WUHU216HW,2013-02-22 13:35:00,
2013-02-22 05:40:00,37.1,33.9,30.18,NE,45,0.0,1.1,88,0.00,,,0.00,WUHU216HW,2013-02-22 13:40:00,
2013-02-22 05:45:00,37.1,33.5,30.18,NE,45,0.0,0.4,87,0.00,,,0.00,WUHU216HW,2013-02-22 13:45:00,
2013-02-22 05:50:00,37.1,33.5,30.18,ENE,68,0.7,1.3,87,0.00,,,0.00,WUHU216HW,2013-02-22 13:50:00,
2013-02-22 05:55:00,37.4,34.2,30.19,ENE,68,0.0,1.3,88,0.00,,,0.00,WUHU216HW,2013-02-22 13:55:00,
2013-02-22 06:00:00,37.3,34.0,30.19,ENE,68,0.9,1.1,88,0.00,,,0.00,WUHU216HW,2013-02-22 14:00:00,
2013-02-22 06:05:00,37.4,34.5,30.19,ENE,68,0.9,1.3,89,0.00,,,0.00,WUHU216HW,2013-02-22 14:05:00,
2013-02-22 06:10:00,37.4,34.5,30.19,ENE,68,0.7,1.3,89,0.00,,,0.00,WUHU216HW,2013-02-22 14:10:00,
2013-02-22 06:15:00,37.4,34.5,30.19,NE,45,0.0,1.3,89,0.00,,,0.00,WUHU216HW,2013-02-22 14:15:00,
2013-02-22 06:20:00,37.1,33.9,30.19,NE,45,0.0,1.3,88,0.00,,,0.00,WUHU216HW,2013-02-22 14:20:00,
2013-02-22 06:25:00,36.7,33.5,30.20,NE,45,0.0,0.4,88,0.00,,,0.00,WUHU216HW,2013-02-22 14:25:00,
2013-02-22 06:30:00,36.7,33.8,30.19,NE,45,1.1,1.1,89,0.00,,,0.00,WUHU216HW,2013-02-22 14:30:00,
2013-02-22 06:35:00,36.7,33.8,30.19,ENE,68,0.4,1.3,89,0.00,,,0.00,WUHU216HW,2013-02-22 14:35:00,
2013-02-22 06:40:00,36.5,33.6,30.19,ESE,113,0.9,1.3,89,0.00,,,0.00,WUHU216HW,2013-02-22 14:40:00,
2013-02-22 06:45:00,36.5,33.6,30.19,East,90,0.2,1.3,89,0.00,,,0.00,WUHU216HW,2013-02-22 14:45:00,
2013-02-22 06:50:00,36.9,33.9,30.19,SE,135,1.8,1.8,89,0.00,,,0.00,WUHU216HW,2013-02-22 14:50:00,
2013-02-22 06:55:00,37.1,34.1,30.19,SE,135,1.6,1.8,89,0.00,,,0.00,WUHU216HW,2013-02-22 14:55:00,
2013-02-22 07:00:00,37.3,34.3,30.19,SE,135,1.1,1.8,89,0.00,,,0.00,WUHU216HW,2013-02-22 15:00:00,
2013-02-22 07:05:00,37.4,34.7,30.20,SE,135,0.0,1.8,90,0.00,,,0.00,WUHU216HW,2013-02-22 15:05:00,
2013-02-22 07:10:00,37.3,34.3,30.20,SE,135,0.0,1.1,89,0.00,,,0.00,WUHU216HW,2013-02-22 15:10:00,
2013-02-22 07:15:00,37.6,34.9,30.20,NE,45,0.0,0.7,90,0.00,,,0.00,WUHU216HW,2013-02-22 15:15:00,
2013-02-22 07:20:00,37.8,35.1,30.21,NE,45,0.0,0.7,90,0.00,,,0.00,WUHU216HW,2013-02-22 15:20:00,
2013-02-22 07:25:00,38.3,35.4,30.21,NE,45,0.2,0.2,89,0.00,,,0.00,WUHU216HW,2013-02-22 15:25:00,
2013-02-22 07:30:00,38.7,35.5,30.21,NE,45,0.0,0.4,88,0.00,,,0.00,WUHU216HW,2013-02-22 15:30:00,
2013-02-22 07:35:00,38.9,35.3,30.21,NE,45,0.0,0.4,87,0.00,,,0.00,WUHU216HW,2013-02-22 15:35:00,
2013-02-22 07:40:00,39.1,35.2,30.21,NE,45,0.0,0.2,86,0.00,,,0.00,WUHU216HW,2013-02-22 15:40:00,
2013-02-22 07:45:00,39.6,35.7,30.22,NE,45,0.0,0.2,86,0.00,,,0.00,WUHU216HW,2013-02-22 15:45:00,
2013-02-22 07:50:00,39.8,35.7,30.22,NE,45,0.0,0.2,85,0.00,,,0.00,WUHU216HW,2013-02-22 15:50:00,
2013-02-22 07:55:00,39.8,35.7,30.22,NE,45,0.0,0.2,85,0.00,,,0.00,WUHU216HW,2013-02-22 15:55:00,
2013-02-22 08:00:00,40.1,35.6,30.22,NE,45,0.0,0.2,84,0.00,,,0.00,WUHU216HW,2013-02-22 16:00:00,
2013-02-22 08:05:00,40.3,35.8,30.22,ENE,68,0.0,0.9,84,0.00,,,0.00,WUHU216HW,2013-02-22 16:05:00,
2013-02-22 08:10:00,40.5,36.0,30.23,SE,135,1.8,2.2,84,0.00,,,0.00,WUHU216HW,2013-02-22 16:10:00,
2013-02-22 08:15:00,40.9,36.0,30.23,SE,135,0.9,2.2,83,0.00,,,0.00,WUHU216HW,2013-02-22 16:15:00,
2013-02-22 08:20:00,41.2,36.1,30.23,SE,135,1.8,2.2,82,0.00,,,0.00,WUHU216HW,2013-02-22 16:20:00,
2013-02-22 08:25:00,41.4,36.3,30.24,SE,135,0.7,2.0,82,0.00,,,0.00,WUHU216HW,2013-02-22 16:25:00,
2013-02-22 08:30:00,41.9,36.5,30.23,SE,135,0.0,1.8,81,0.00,,,0.00,WUHU216HW,2013-02-22 16:30:00,
2013-02-22 08:35:00,42.1,36.6,30.23,SE,135,0.0,1.6,81,0.00,,,0.00,WUHU216HW,2013-02-22 16:35:00,
2013-02-22 08:40:00,42.5,36.7,30.23,SE,135,1.6,1.8,80,0.00,,,0.00,WUHU216HW,2013-02-22 16:40:00,
2013-02-22 08:45:00,43.6,36.8,30.23,SSE,158,3.4,4.7,77,0.00,,,0.00,WUHU216HW,2013-02-22 16:45:00,
2013-02-22 08:50:00,44.3,37.5,30.23,South,180,1.6,4.7,77,0.00,,,0.00,WUHU216HW,2013-02-22 16:50:00,
2013-02-22 08:55:00,44.6,37.9,30.23,SSE,158,0.0,3.6,77,0.00,,,0.00,WUHU216HW,2013-02-22 16:55:00,
2013-02-22 09:00:00,45.0,38.3,30.24,SSE,158,0.0,1.6,77,0.00,,,0.00,WUHU216HW,2013-02-22 17:00:00,
2013-02-22 09:05:00,45.5,39.1,30.24,SSE,158,0.0,0.4,78,0.00,,,0.00,WUHU216HW,2013-02-22 17:05:00,
2013-02-22 09:10:00,46.1,38.6,30.24,South,180,2.0,2.0,75,0.00,,,0.00,WUHU216HW,2013-02-22 17:10:00,
2013-02-22 09:15:00,46.8,39.0,30.24,South,180,1.1,2.0,74,0.00,,,0.00,WUHU216HW,2013-02-22 17:15:00,
2013-02-22 09:20:00,47.9,38.9,30.23,SSE,158,0.0,2.0,71,0.00,,,0.00,WUHU216HW,2013-02-22 17:20:00,
2013-02-22 09:25:00,48.1,38.4,30.23,South,180,0.7,1.1,69,0.00,,,0.00,WUHU216HW,2013-02-22 17:25:00,
2013-02-22 09:30:00,49.3,38.4,30.23,South,180,0.9,2.0,66,0.00,,,0.00,WUHU216HW,2013-02-22 17:30:00,
2013-02-22 09:35:00,50.4,38.6,30.23,SE,135,0.4,2.0,64,0.00,,,0.00,WUHU216HW,2013-02-22 17:35:00,
2013-02-22 09:40:00,51.3,39.1,30.23,SSE,158,1.1,2.2,63,0.00,,,0.00,WUHU216HW,2013-02-22 17:40:00,
2013-02-22 09:45:00,51.3,38.7,30.23,SSE,158,2.0,3.4,62,0.00,,,0.00,WUHU216HW,2013-02-22 17:45:00,
2013-02-22 09:50:00,52.2,39.2,30.23,SE,135,0.4,3.4,61,0.00,,,0.00,WUHU216HW,2013-02-22 17:50:00,
2013-02-22 09:55:00,53.5,39.5,30.23,SW,225,5.1,5.1,59,0.00,,,0.00,WUHU216HW,2013-02-22 17:55:00,
2013-02-22 10:00:00,54.0,39.5,30.23,SE,135,1.1,5.1,58,0.00,,,0.00,WUHU216HW,2013-02-22 18:00:00,
2013-02-22 10:05:00,55.3,39.7,30.23,SE,135,0.0,5.1,56,0.00,,,0.00,WUHU216HW,2013-02-22 18:05:00,
2013-02-22 10:10:00,54.7,39.7,30.23,ESE,113,0.0,1.1,57,0.00,,,0.00,WUHU216HW,2013-02-22 18:10:00,
2013-02-22 10:15:00,55.8,39.3,30.23,SSW,203,1.6,1.6,54,0.00,,,0.00,WUHU216HW,2013-02-22 18:15:00,
2013-02-22 10:20:00,55.3,38.4,30.23,NNE,23,1.1,2.0,53,0.00,,,0.00,WUHU216HW,2013-02-22 18:20:00,
2013-02-22 10:25:00,54.4,37.5,30.24,NNE,23,0.4,2.0,53,0.00,,,0.00,WUHU216HW,2013-02-22 18:25:00,
2013-02-22 10:30:00,54.2,37.8,30.24,NE,45,0.9,2.5,54,0.00,,,0.00,WUHU216HW,2013-02-22 18:30:00,
2013-02-22 10:35:00,54.4,38.4,30.24,North,0,0.2,2.5,55,0.00,,,0.00,WUHU216HW,2013-02-22 18:35:00,
2013-02-22 10:40:00,55.1,39.1,30.24,WSW,248,2.2,2.2,55,0.00,,,0.00,WUHU216HW,2013-02-22 18:40:00,
2013-02-22 10:45:00,56.9,40.0,30.24,SW,225,1.3,2.9,53,0.00,,,0.00,WUHU216HW,2013-02-22 18:45:00,
2013-02-22 10:50:00,57.6,39.7,30.24,SSW,203,2.7,5.4,51,0.00,,,0.00,WUHU216HW,2013-02-22 18:50:00,
2013-02-22 10:55:00,56.7,39.2,30.24,NNE,23,1.6,5.4,52,0.00,,,0.00,WUHU216HW,2013-02-22 18:55:00,
2013-02-22 11:00:00,56.5,39.6,30.24,NNW,338,0.4,2.7,53,0.00,,,0.00,WUHU216HW,2013-02-22 19:00:00,
2013-02-22 11:05:00,57.8,40.3,30.24,NW,315,1.1,2.5,52,0.00,,,0.00,WUHU216HW,2013-02-22 19:05:00,
2013-02-22 11:10:00,58.0,40.0,30.24,WNW,293,1.1,3.1,51,0.00,,,0.00,WUHU216HW,2013-02-22 19:10:00,
2013-02-22 11:15:00,59.4,39.7,30.24,SW,225,4.5,4.5,48,0.00,,,0.00,WUHU216HW,2013-02-22 19:15:00,
2013-02-22 11:20:00,59.6,39.2,30.24,NW,315,3.4,4.5,47,0.00,,,0.00,WUHU216HW,2013-02-22 19:20:00,
2013-02-22 11:25:00,59.6,39.2,30.24,NNW,338,1.8,4.5,47,0.00,,,0.00,WUHU216HW,2013-02-22 19:25:00,
2013-02-22 11:30:00,58.7,39.6,30.24,NNW,338,2.7,4.3,49,0.00,,,0.00,WUHU216HW,2013-02-22 19:30:00,
2013-02-22 11:35:00,58.7,39.6,30.23,NNW,338,1.8,4.3,49,0.00,,,0.00,WUHU216HW,2013-02-22 19:35:00,
2013-02-22 11:40:00,59.6,39.2,30.23,NW,315,3.4,5.1,47,0.00,,,0.00,WUHU216HW,2013-02-22 19:40:00,
2013-02-22 11:45:00,59.9,39.6,30.23,WNW,293,1.8,5.1,47,0.00,,,0.00,WUHU216HW,2013-02-22 19:45:00,
2013-02-22 11:50:00,58.9,38.6,30.23,West,270,1.8,4.0,47,0.00,,,0.00,WUHU216HW,2013-02-22 19:50:00,
2013-02-22 11:55:00,59.0,39.3,30.23,NNW,338,1.3,3.4,48,0.00,,,0.00,WUHU216HW,2013-02-22 19:55:00,
2013-02-22 12:00:00,59.4,39.1,30.22,NNW,338,1.1,4.0,47,0.00,,,0.00,WUHU216HW,2013-02-22 20:00:00,
2013-02-22 12:05:00,60.5,40.1,30.22,WNW,293,1.1,4.0,47,0.00,,,0.00,WUHU216HW,2013-02-22 20:05:00,
2013-02-22 12:10:00,60.8,38.7,30.22,NNW,338,1.3,3.8,44,0.00,,,0.00,WUHU216HW,2013-02-22 20:10:00,
2013-02-22 12:15:00,60.7,39.1,30.22,SW,225,2.9,2.9,45,0.00,,,0.00,WUHU216HW,2013-02-22 20:15:00,
2013-02-22 12:20:00,62.1,39.3,30.21,WSW,248,3.1,3.6,43,0.00,,,0.00,WUHU216HW,2013-02-22 20:20:00,
2013-02-22 12:25:00,62.5,39.0,30.21,North,0,0.7,3.6,42,0.00,,,0.00,WUHU216HW,2013-02-22 20:25:00,
2013-02-22 12:30:00,61.7,38.4,30.21,NW,315,2.5,5.6,42,0.00,,,0.00,WUHU216HW,2013-02-22 20:30:00,
2013-02-22 12:35:00,60.8,39.2,30.21,WNW,293,1.1,5.6,45,0.00,,,0.00,WUHU216HW,2013-02-22 20:35:00,
2013-02-22 12:40:00,62.1,39.3,30.21,NW,315,1.3,3.1,43,0.00,,,0.00,WUHU216HW,2013-02-22 20:40:00,
2013-02-22 12:45:00,62.6,38.5,30.21,NNW,338,2.5,4.3,41,0.00,,,0.00,WUHU216HW,2013-02-22 20:45:00,
2013-02-22 12:50:00,62.3,39.4,30.20,NW,315,3.6,4.7,43,0.00,,,0.00,WUHU216HW,2013-02-22 20:50:00,
2013-02-22 12:55:00,63.7,39.0,30.20,NW,315,5.4,5.8,40,0.00,,,0.00,WUHU216HW,2013-02-22 20:55:00,
2013-02-22 13:00:00,64.8,39.3,30.20,NNE,23,0.4,5.8,39,0.00,,,0.00,WUHU216HW,2013-02-22 21:00:00,
2013-02-22 13:05:00,62.5,39.0,30.20,NNW,338,1.1,5.4,42,0.00,,,0.00,WUHU216HW,2013-02-22 21:05:00,
2013-02-22 13:10:00,64.1,38.5,30.20,NW,315,5.8,5.8,39,0.00,,,0.00,WUHU216HW,2013-02-22 21:10:00,
2013-02-22 13:15:00,64.8,38.5,30.20,NW,315,3.8,5.8,38,0.00,,,0.00,WUHU216HW,2013-02-22 21:15:00,
2013-02-22 13:20:00,64.8,38.5,30.20,WNW,293,0.9,5.8,38,0.00,,,0.00,WUHU216HW,2013-02-22 21:20:00,
2013-02-22 13:25:00,63.7,37.5,30.20,North,0,4.7,6.3,38,0.00,,,0.00,WUHU216HW,2013-02-22 21:25:00,
2013-02-22 13:30:00,64.1,37.8,30.19,NNW,338,3.4,6.5,38,0.00,,,0.00,WUHU216HW,2013-02-22 21:30:00,
2013-02-22 13:35:00,63.2,37.7,30.19,NW,315,4.7,6.7,39,0.00,,,0.00,WUHU216HW,2013-02-22 21:35:00,
2013-02-22 13:40:00,64.1,37.8,30.19,WNW,293,3.6,6.7,38,0.00,,,0.00,WUHU216HW,2013-02-22 21:40:00,
2013-02-22 13:45:00,64.1,37.8,30.19,WNW,293,3.6,6.0,38,0.00,,,0.00,WUHU216HW,2013-02-22 21:45:00,
2013-02-22 13:50:00,63.7,38.3,30.19,SW,225,5.1,6.3,39,0.00,,,0.00,WUHU216HW,2013-02-22 21:50:00,
2013-02-22 13:55:00,64.1,38.5,30.18,WNW,293,4.7,6.3,39,0.00,,,0.00,WUHU216HW,2013-02-22 21:55:00,
2013-02-22 14:00:00,64.3,38.0,30.18,NW,315,4.9,6.3,38,0.00,,,0.00,WUHU216HW,2013-02-22 22:00:00,
2013-02-22 14:05:00,64.8,37.8,30.17,NNW,338,3.4,6.3,37,0.00,,,0.00,WUHU216HW,2013-02-22 22:05:00,
2013-02-22 14:10:00,64.6,38.4,30.17,NNW,338,1.8,5.4,38,0.00,,,0.00,WUHU216HW,2013-02-22 22:10:00,
2013-02-22 14:15:00,63.4,38.6,30.17,NW,315,1.8,3.8,40,0.00,,,0.00,WUHU216HW,2013-02-22 22:15:00,
2013-02-22 14:20:00,63.9,39.2,30.17,NW,315,5.6,5.6,40,0.00,,,0.00,WUHU216HW,2013-02-22 22:20:00,
2013-02-22 14:25:00,64.1,39.2,30.17,WNW,293,7.6,7.6,40,0.00,,,0.00,WUHU216HW,2013-02-22 22:25:00,
2013-02-22 14:30:00,64.3,39.4,30.18,West,270,4.7,7.6,40,0.00,,,0.00,WUHU216HW,2013-02-22 22:30:00,
2013-02-22 14:35:00,63.9,39.2,30.18,WSW,248,2.5,7.6,40,0.00,,,0.00,WUHU216HW,2013-02-22 22:35:00,
2013-02-22 14:40:00,64.4,39.6,30.18,NNE,23,1.1,6.5,40,0.00,,,0.00,WUHU216HW,2013-02-22 22:40:00,
2013-02-22 14:45:00,64.1,39.2,30.18,NNW,338,3.1,4.9,40,0.00,,,0.00,WUHU216HW,2013-02-22 22:45:00,
2013-02-22 14:50:00,63.0,38.9,30.18,NW,315,1.8,5.4,41,0.00,,,0.00,WUHU216HW,2013-02-22 22:50:00,
2013-02-22 14:55:00,63.2,38.4,30.17,NNW,338,4.0,5.4,40,0.00,,,0.00,WUHU216HW,2013-02-22 22:55:00,
2013-02-22 15:00:00,63.7,39.5,30.17,NW,315,5.4,6.5,41,0.00,,,0.00,WUHU216HW,2013-02-22 23:00:00,
2013-02-22 15:05:00,63.9,39.2,30.18,NNW,338,1.3,6.9,40,0.00,,,0.00,WUHU216HW,2013-02-22 23:05:00,
2013-02-22 15:10:00,63.5,38.1,30.18,NNW,338,4.0,6.9,39,0.00,,,0.00,WUHU216HW,2013-02-22 23:10:00,
2013-02-22 15:15:00,63.4,37.9,30.18,NNW,338,8.1,8.1,39,0.00,,,0.00,WUHU216HW,2013-02-22 23:15:00,
2013-02-22 15:20:00,63.0,36.9,30.18,NW,315,4.3,8.5,38,0.00,,,0.00,WUHU216HW,2013-02-22 23:20:00,
2013-02-22 15:25:00,63.2,37.7,30.19,NNW,338,4.5,8.5,39,0.00,,,0.00,WUHU216HW,2013-02-22 23:25:00,
2013-02-22 15:30:00,63.2,37.7,30.18,WNW,293,2.5,5.4,39,0.00,,,0.00,WUHU216HW,2013-02-22 23:30:00,
2013-02-22 15:35:00,63.4,37.2,30.18,NNW,338,2.9,8.7,38,0.00,,,0.00,WUHU216HW,2013-02-22 23:35:00,
2013-02-22 15:40:00,63.2,37.0,30.18,WNW,293,4.3,8.7,38,0.00,,,0.00,WUHU216HW,2013-02-22 23:40:00,
2013-02-22 15:45:00,63.2,37.0,30.18,NNW,338,4.7,7.6,38,0.00,,,0.00,WUHU216HW,2013-02-22 23:45:00,
2013-02-22 15:50:00,63.0,38.4,30.18,NW,315,3.4,7.6,40,0.00,,,0.00,WUHU216HW,2013-02-22 23:50:00,
2013-02-22 15:55:00,63.2,37.7,30.18,WSW,248,5.8,7.2,39,0.00,,,0.00,WUHU216HW,2013-02-22 23:55:00,
2013-02-22 16:00:00,63.5,38.1,30.18,NNW,338,4.0,7.2,39,0.00,,,0.00,WUHU216HW,2013-02-23 00:00:00,
2013-02-22 16:05:00,64.1,38.5,30.18,NW,315,4.0,6.5,39,0.00,,,0.00,WUHU216HW,2013-02-23 00:05:00,
2013-02-22 16:10:00,63.2,37.0,30.18,NNW,338,3.8,6.3,38,0.00,,,0.00,WUHU216HW,2013-02-23 00:10:00,
2013-02-22 16:15:00,62.8,38.2,30.18,NNW,338,1.1,4.7,40,0.00,,,0.00,WUHU216HW,2013-02-23 00:15:00,
2013-02-22 16:20:00,63.4,38.6,30.18,NNW,338,3.4,4.9,40,0.00,,,0.00,WUHU216HW,2013-02-23 00:20:00,
2013-02-22 16:25:00,63.5,39.3,30.18,NNW,338,3.6,4.9,41,0.00,,,0.00,WUHU216HW,2013-02-23 00:25:00,
2013-02-22 16:30:00,63.4,39.3,30.18,WNW,293,2.2,4.5,41,0.00,,,0.00,WUHU216HW,2013-02-23 00:30:00,
2013-02-22 16:35:00,63.4,39.3,30.18,WNW,293,2.2,3.8,41,0.00,,,0.00,WUHU216HW,2013-02-23 00:35:00,
2013-02-22 17:04:00,61.2,40.1,30.19,NNW,338,3.4,6.3,46,0.00,,,0.00,WUHU216HW,2013-02-23 01:04:00,
2013-02-22 17:09:00,60.7,40.8,30.19,NNW,338,4.7,6.9,48,0.00,,,0.00,WUHU216HW,2013-02-23 01:09:00,
2013-02-22 17:14:00,60.1,41.5,30.19,NW,315,2.0,6.9,50,0.00,,,0.00,WUHU216HW,2013-02-23 01:14:00,
2013-02-22 17:19:00,59.8,42.1,30.19,WSW,248,4.7,6.0,52,0.00,,,0.00,WUHU216HW,2013-02-23 01:19:00,
2013-02-22 17:24:00,59.4,41.8,30.19,NNW,338,2.2,6.3,52,0.00,,,0.00,WUHU216HW,2013-02-23 01:24:00,
2013-02-22 17:29:00,59.0,42.0,30.19,NNW,338,2.7,6.3,53,0.00,,,0.00,WUHU216HW,2013-02-23 01:29:00,
2013-02-22 17:34:00,58.5,41.9,30.19,WNW,293,2.0,4.5,54,0.00,,,0.00,WUHU216HW,2013-02-23 01:34:00,
2013-02-22 17:39:00,57.8,41.2,30.19,NW,315,4.3,5.8,54,0.00,,,0.00,WUHU216HW,2013-02-23 01:39:00,
2013-02-22 17:44:00,57.1,40.6,30.20,WSW,248,4.3,5.8,54,0.00,,,0.00,WUHU216HW,2013-02-23 01:44:00,
2013-02-22 17:49:00,56.9,41.3,30.20,NNW,338,3.4,5.4,56,0.00,,,0.00,WUHU216HW,2013-02-23 01:49:00,
2013-02-22 17:54:00,56.3,41.2,30.19,WNW,293,2.2,6.3,57,0.00,,,0.00,WUHU216HW,2013-02-23 01:54:00,
2013-02-22 18:00:00,56.0,40.4,30.19,NNW,338,0.9,6.3,56,0.00,,,0.00,WUHU216HW,2013-02-23 02:00:00,
2013-02-22 18:05:00,55.4,39.9,30.19,NNW,338,2.7,4.3,56,0.00,,,0.00,WUHU216HW,2013-02-23 02:05:00,
2013-02-22 18:10:00,55.4,39.9,30.19,NW,315,3.1,4.3,56,0.00,,,0.00,WUHU216HW,2013-02-23 02:10:00,
2013-02-22 18:15:00,55.4,39.9,30.19,NNW,338,2.9,3.8,56,0.00,,,0.00,WUHU216HW,2013-02-23 02:15:00,
2013-02-22 18:20:00,55.3,39.7,30.19,NNW,338,1.8,3.8,56,0.00,,,0.00,WUHU216HW,2013-02-23 02:20:00,
2013-02-22 18:25:00,55.1,39.6,30.19,NNW,338,0.9,3.8,56,0.00,,,0.00,WUHU216HW,2013-02-23 02:25:00,
2013-02-22 18:30:00,55.1,39.1,30.19,West,270,1.8,3.1,55,0.00,,,0.00,WUHU216HW,2013-02-23 02:30:00,
2013-02-22 18:35:00,55.1,39.1,30.19,NNW,338,3.4,4.3,55,0.00,,,0.00,WUHU216HW,2013-02-23 02:35:00,
2013-02-22 18:40:00,54.9,39.0,30.19,North,0,2.5,4.3,55,0.00,,,0.00,WUHU216HW,2013-02-23 02:40:00,
2013-02-22 18:45:00,54.7,38.8,30.19,North,0,2.0,3.8,55,0.00,,,0.00,WUHU216HW,2013-02-23 02:45:00,
2013-02-22 18:50:00,54.7,39.2,30.19,NNW,338,1.3,3.6,56,0.00,,,0.00,WUHU216HW,2013-02-23 02:50:00,
2013-02-22 18:55:00,54.5,39.1,30.19,WNW,293,2.0,3.4,56,0.00,,,0.00,WUHU216HW,2013-02-23 02:55:00,
2013-02-22 19:00:00,54.4,39.9,30.20,NNW,338,4.0,4.0,58,0.00,,,0.00,WUHU216HW,2013-02-23 03:00:00,
2013-02-22 19:05:00,54.0,40.0,30.20,NNW,338,4.0,4.0,59,0.00,,,0.00,WUHU216HW,2013-02-23 03:05:00,
2013-02-22 19:10:00,53.6,40.1,30.20,West,270,1.1,4.0,60,0.00,,,0.00,WUHU216HW,2013-02-23 03:10:00,
2013-02-22 19:15:00,53.5,40.8,30.20,West,270,1.8,3.8,62,0.00,,,0.00,WUHU216HW,2013-02-23 03:15:00,
2013-02-22 19:20:00,53.5,41.1,30.20,West,270,2.2,3.8,63,0.00,,,0.00,WUHU216HW,2013-02-23 03:20:00,
2013-02-22 19:25:00,53.3,41.0,30.20,West,270,1.6,3.8,63,0.00,,,0.00,WUHU216HW,2013-02-23 03:25:00,
2013-02-22 19:30:00,53.1,40.8,30.20,NW,315,0.9,3.8,63,0.00,,,0.00,WUHU216HW,2013-02-23 03:30:00,
2013-02-22 19:35:00,52.9,41.1,30.20,West,270,1.1,1.6,64,0.00,,,0.00,WUHU216HW,2013-02-23 03:35:00,
2013-02-22 19:40:00,52.9,41.1,30.21,WSW,248,1.3,2.0,64,0.00,,,0.00,WUHU216HW,2013-02-23 03:40:00,
2013-02-22 19:45:00,52.7,41.3,30.21,NW,315,1.8,2.0,65,0.00,,,0.00,WUHU216HW,2013-02-23 03:45:00,
2013-02-22 19:50:00,52.7,41.7,30.21,West,270,1.3,2.7,66,0.00,,,0.00,WUHU216HW,2013-02-23 03:50:00,
2013-02-22 19:55:00,52.6,42.0,30.22,NW,315,2.0,2.7,67,0.00,,,0.00,WUHU216HW,2013-02-23 03:55:00,
2013-02-22 20:00:00,52.2,41.9,30.22,NW,315,1.8,3.4,68,0.00,,,0.00,WUHU216HW,2013-02-23 04:00:00,
2013-02-22 20:05:00,52.2,42.4,30.23,NW,315,2.2,4.0,69,0.00,,,0.00,WUHU216HW,2013-02-23 04:05:00,
2013-02-22 20:10:00,52.2,42.4,30.23,NNW,338,2.5,4.0,69,0.00,,,0.00,WUHU216HW,2013-02-23 04:10:00,
2013-02-22 20:15:00,52.2,42.4,30.23,NNW,338,1.8,4.5,69,0.00,,,0.00,WUHU216HW,2013-02-23 04:15:00,
2013-02-22 20:20:00,52.0,42.2,30.22,NW,315,0.7,4.5,69,0.00,,,0.00,WUHU216HW,2013-02-23 04:20:00,
2013-02-22 20:25:00,52.0,42.2,30.23,NNW,338,0.2,2.7,69,0.00,,,0.00,WUHU216HW,2013-02-23 04:25:00,
2013-02-22 20:30:00,51.8,42.0,30.23,NW,315,0.4,1.6,69,0.00,,,0.00,WUHU216HW,2013-02-23 04:30:00,
2013-02-22 20:35:00,51.8,42.0,30.23,NNW,338,0.2,2.5,69,0.00,,,0.00,WUHU216HW,2013-02-23 04:35:00,
2013-02-22 20:40:00,51.7,42.7,30.23,NNW,338,1.8,3.8,71,0.00,,,0.00,WUHU216HW,2013-02-23 04:40:00,
2013-02-22 20:45:00,51.7,43.0,30.23,NNW,338,0.9,3.8,72,0.00,,,0.00,WUHU216HW,2013-02-23 04:45:00,
2013-02-22 20:50:00,51.7,43.0,30.23,NNW,338,0.9,2.7,72,0.00,,,0.00,WUHU216HW,2013-02-23 04:50:00,
2013-02-22 21:04:00,51.1,42.8,30.21,NNW,338,0.0,0.0,73,0.00,,,0.00,WUHU216HW,2013-02-23 05:04:00,
2013-02-22 22:04:00,50.2,43.6,30.24,NW,315,1.8,1.8,78,0.00,,,0.00,WUHU216HW,2013-02-23 06:04:00,
2013-02-22 23:05:00,50.9,43.7,30.25,NW,315,1.8,2.7,76,0.00,,,0.00,WUHU216HW,2013-02-23 07:05:00,
2013-02-22 23:10:00,50.9,43.7,30.25,WNW,293,0.7,2.7,76,0.00,,,0.00,WUHU216HW,2013-02-23 07:10:00,
2013-02-22 23:15:00,50.9,44.0,30.26,WNW,293,1.1,2.0,77,0.00,,,0.00,WUHU216HW,2013-02-23 07:15:00,
2013-02-22 23:20:00,51.1,44.2,30.26,NW,315,0.4,2.0,77,0.00,,,0.00,WUHU216HW,2013-02-23 07:20:00,
2013-02-22 23:25:00,51.1,44.2,30.26,NW,315,0.4,2.0,77,0.00,,,0.00,WUHU216HW,2013-02-23 07:25:00,